Time;durP1;ratioP1;P1;durP2;ratioP2;P2;SDS_P1;SDS_P2;PMS_P1;PMS_P2;Temp;Humidity;BMP_temperature;BMP_pressure;BME280_temperature;BME280_humidity;BME280_pressure;Samples;Min_cycle;Max_cycle;Signal;HPM_P1;HPM_P2
2020/02/01 00:00:38;;;;;;;4.5;3.6;;;;;;;;;;;;;
2020/02/01 00:03:00;;;;;;;5;3.7;;;;;;;;;;;;;
2020/02/01 00:05:28;;;;;;;4.1;3.3;;;;;;;;;;;;;
2020/02/01 00:07:53;;;;;;;5.1;3.2;;;;;;;;;;;;;
2020/02/01 00:10:30;;;;;;;3.9;3.1;;;;;;;;;;;;;
2020/02/01 00:12:57;;;;;;;4.1;3.4;;;;;;;;;;;;;
2020/02/01 00:15:29;;;;;;;10.3;8.6;;;;;;;;;;;;;
2020/02/01 00:17:57;;;;;;;5.6;3.6;;;;;;;;;;;;;
2020/02/01 00:20:21;;;;;;;4.3;3.5;;;;;;;;;;;;;
2020/02/01 00:22:52;;;;;;;5.2;4;;;;;;;;;;;;;
2020/02/01 00:25:18;;;;;;;4.2;3.1;;;;;;;;;;;;;
2020/02/01 00:27:44;;;;;;;4.1;3.3;;;;;;;;;;;;;
2020/02/01 00:30:09;;;;;;;3.9;3.3;;;;;;;;;;;;;
2020/02/01 00:32:36;;;;;;;4.1;3.5;;;;;;;;;;;;;
2020/02/01 00:34:58;;;;;;;5.5;4.2;;;;;;;;;;;;;
2020/02/01 00:37:38;;;;;;;4.5;3.6;;;;;;;;;;;;;
2020/02/01 00:39:49;;;;;;;4.9;3.1;;;;;;;;;;;;;
2020/02/01 00:42:15;;;;;;;3.9;3.1;;;;;;;;;;;;;
2020/02/01 00:44:40;;;;;;;3.5;2.8;;;;;;;;;;;;;
2020/02/01 00:47:09;;;;;;;4.3;3.2;;;;;;;;;;;;;
2020/02/01 00:49:33;;;;;;;3.8;2.8;;;;;;;;;;;;;
2020/02/01 00:51:57;;;;;;;34.6;22.9;;;;;;;;;;;;;
2020/02/01 00:54:25;;;;;;;4.2;3.5;;;;;;;;;;;;;
2020/02/01 00:56:48;;;;;;;20.9;13.9;;;;;;;;;;;;;
2020/02/01 00:59:12;;;;;;;11.3;7.2;;;;;;;;;;;;;
2020/02/01 01:01:37;;;;;;;11.8;7.7;;;;;;;;;;;;;
2020/02/01 01:04:04;;;;;;;32.4;19.6;;;;;;;;;;;;;
2020/02/01 01:06:30;;;;;;;24.3;15;;;;;;;;;;;;;
2020/02/01 01:08:55;;;;;;;10;5.9;;;;;;;;;;;;;
2020/02/01 01:11:18;;;;;;;21.5;13.3;;;;;;;;;;;;;
2020/02/01 01:13:44;;;;;;;16.4;10.4;;;;;;;;;;;;;
2020/02/01 01:16:10;;;;;;;7;5;;;;;;;;;;;;;
2020/02/01 01:18:34;;;;;;;6.2;4.4;;;;;;;;;;;;;
2020/02/01 01:20:59;;;;;;;5.8;4;;;;;;;;;;;;;
2020/02/01 01:23:24;;;;;;;8.3;4.5;;;;;;;;;;;;;
2020/02/01 01:25:51;;;;;;;7.1;4.6;;;;;;;;;;;;;
2020/02/01 01:28:16;;;;;;;161.9;76.9;;;;;;;;;;;;;
2020/02/01 01:33:20;;;;;;;10.2;7;;;;;;;;;;;;;
2020/02/01 01:35:36;;;;;;;4.5;3.4;;;;;;;;;;;;;
2020/02/01 01:37:56;;;;;;;4;2.8;;;;;;;;;;;;;
2020/02/01 01:40:26;;;;;;;5.8;4;;;;;;;;;;;;;
2020/02/01 01:42:49;;;;;;;4.4;3.6;;;;;;;;;;;;;
2020/02/01 01:45:13;;;;;;;5.3;4.3;;;;;;;;;;;;;
2020/02/01 01:47:38;;;;;;;6.8;4.9;;;;;;;;;;;;;
2020/02/01 01:50:03;;;;;;;8.1;4.5;;;;;;;;;;;;;
2020/02/01 01:52:29;;;;;;;34.9;23.9;;;;;;;;;;;;;
2020/02/01 01:54:54;;;;;;;6.6;4.7;;;;;;;;;;;;;
2020/02/01 01:57:20;;;;;;;12.6;8.8;;;;;;;;;;;;;
2020/02/01 01:59:44;;;;;;;15.6;11.4;;;;;;;;;;;;;
2020/02/01 02:02:21;;;;;;;14.5;11;;;;;;;;;;;;;
2020/02/01 02:04:38;;;;;;;7.1;5;;;;;;;;;;;;;
2020/02/01 02:07:01;;;;;;;7.8;5.1;;;;;;;;;;;;;
2020/02/01 02:09:27;;;;;;;7.4;5.3;;;;;;;;;;;;;
2020/02/01 02:11:52;;;;;;;6.9;4.8;;;;;;;;;;;;;
2020/02/01 02:14:18;;;;;;;5.2;3.1;;;;;;;;;;;;;
2020/02/01 02:16:48;;;;;;;3.1;2.6;;;;;;;;;;;;;
2020/02/01 02:19:21;;;;;;;3.4;2.8;;;;;;;;;;;;;
2020/02/01 02:21:46;;;;;;;94.7;61.3;;;;;;;;;;;;;
2020/02/01 02:24:11;;;;;;;6.9;5.6;;;;;;;;;;;;;
2020/02/01 02:26:38;;;;;;;98.6;74.7;;;;;;;;;;;;;
2020/02/01 02:29:02;;;;;;;53.7;40.3;;;;;;;;;;;;;
2020/02/01 02:31:26;;;;;;;14;10.6;;;;;;;;;;;;;
2020/02/01 02:34:10;;;;;;;26.9;23.1;;;;;;;;;;;;;
2020/02/01 02:36:21;;;;;;;6.1;4.2;;;;;;;;;;;;;
2020/02/01 02:38:44;;;;;;;4.1;2.8;;;;;;;;;;;;;
2020/02/01 02:41:09;;;;;;;4.7;3;;;;;;;;;;;;;
2020/02/01 02:43:33;;;;;;;4.6;2.9;;;;;;;;;;;;;
2020/02/01 02:46:03;;;;;;;3.6;2.5;;;;;;;;;;;;;
2020/02/01 02:48:24;;;;;;;3.5;2.5;;;;;;;;;;;;;
2020/02/01 02:50:50;;;;;;;2.8;2.4;;;;;;;;;;;;;
2020/02/01 02:53:14;;;;;;;16.7;12.2;;;;;;;;;;;;;
2020/02/01 02:55:48;;;;;;;91.7;64.7;;;;;;;;;;;;;
2020/02/01 02:58:05;;;;;;;12.1;7.9;;;;;;;;;;;;;
2020/02/01 03:00:30;;;;;;;61.7;37.4;;;;;;;;;;;;;
2020/02/01 03:02:59;;;;;;;5;3.5;;;;;;;;;;;;;
2020/02/01 03:05:23;;;;;;;5.1;4.1;;;;;;;;;;;;;
2020/02/01 03:07:47;;;;;;;4.6;3.3;;;;;;;;;;;;;
2020/02/01 03:10:12;;;;;;;5.1;3;;;;;;;;;;;;;
2020/02/01 03:12:37;;;;;;;3.9;2.7;;;;;;;;;;;;;
2020/02/01 03:15:03;;;;;;;2.4;2.1;;;;;;;;;;;;;
2020/02/01 03:17:29;;;;;;;2.2;2;;;;;;;;;;;;;
2020/02/01 03:19:56;;;;;;;2.3;1.8;;;;;;;;;;;;;
2020/02/01 03:22:22;;;;;;;2;1.7;;;;;;;;;;;;;
2020/02/01 03:24:47;;;;;;;2.2;1.9;;;;;;;;;;;;;
2020/02/01 03:27:12;;;;;;;2.8;1.9;;;;;;;;;;;;;
2020/02/01 03:29:42;;;;;;;6.8;5.5;;;;;;;;;;;;;
2020/02/01 03:32:04;;;;;;;5.6;3.4;;;;;;;;;;;;;
2020/02/01 03:34:29;;;;;;;4.7;3.3;;;;;;;;;;;;;
2020/02/01 03:36:59;;;;;;;4.4;2.6;;;;;;;;;;;;;
2020/02/01 03:39:20;;;;;;;5.1;2.6;;;;;;;;;;;;;
2020/02/01 03:41:46;;;;;;;3.1;2.3;;;;;;;;;;;;;
2020/02/01 03:44:10;;;;;;;4.2;2.4;;;;;;;;;;;;;
2020/02/01 03:46:40;;;;;;;3.8;2.5;;;;;;;;;;;;;
2020/02/01 03:49:01;;;;;;;3.2;2.3;;;;;;;;;;;;;
2020/02/01 03:51:27;;;;;;;3.4;2.2;;;;;;;;;;;;;
2020/02/01 03:54:01;;;;;;;2.9;2.3;;;;;;;;;;;;;
2020/02/01 03:56:24;;;;;;;2.7;2.4;;;;;;;;;;;;;
2020/02/01 04:03:07;;;;;;;3.5;1.9;;;;;;;2.16;89.59277;935.9662;;;;
2020/02/01 04:05:35;;;;;;;3.5;2.3;;;;;;;2.18;90.83008;935.9084;;;;
2020/02/01 04:08:04;;;;;;;3;2;;;;;;;2.25;91.49512;935.8704;;;;
2020/02/01 04:10:49;;;;;;;3.1;2.4;;;;;;;2.3;91.60742;935.8674;;;;
2020/02/01 04:13:17;;;;;;;2.9;2;;;;;;;2.27;91.16504;935.8695;;;;
2020/02/01 04:15:43;;;;;;;2.4;1.9;;;;;;;2.18;91.68164;935.7937;;;;
2020/02/01 04:18:10;;;;;;;2.2;1.8;;;;;;;2.1;91.82031;935.7177;;;;
2020/02/01 04:20:40;;;;;;;2.8;1.9;;;;;;;2.12;90.98438;935.6468;;;;
2020/02/01 04:23:12;;;;;;;2.9;2.1;;;;;;;2.04;91.09277;935.5483;;;;
2020/02/01 04:25:38;;;;;;;2.7;1.9;;;;;;;2.05;91.31836;935.6074;;;;
2020/02/01 04:28:05;;;;;;;2.5;1.9;;;;;;;2.05;91.99902;935.6175;;;;
2020/02/01 04:30:28;;;;;;;3.6;2.6;;;;;;;2.23;91.51172;935.6599;;;;
2020/02/01 04:32:56;;;;;;;3.5;2.4;;;;;;;2.12;91.64551;935.599;;;;
2020/02/01 04:35:23;;;;;;;3.7;2.5;;;;;;;2.14;91.81738;935.4952;;;;
2020/02/01 04:37:48;;;;;;;4.8;2.7;;;;;;;2.1;91.82031;935.5386;;;;
2020/02/01 04:40:13;;;;;;;5.5;3.8;;;;;;;2.16;91.6416;935.4825;;;;
2020/02/01 04:42:43;;;;;;;4.9;3.9;;;;;;;2.18;91.82715;935.5;;;;
2020/02/01 04:45:10;;;;;;;5.8;4.3;;;;;;;2.28;91.6582;935.4684;;;;
2020/02/01 04:47:40;;;;;;;7;3.7;;;;;;;2.34;91.35645;935.4161;;;;
2020/02/01 04:50:04;;;;;;;6.1;3.4;;;;;;;2.33;91.10742;935.4363;;;;
2020/02/01 04:52:32;;;;;;;5.6;2.8;;;;;;;2.38;90.96289;935.3024;;;;
2020/02/01 04:54:59;;;;;;;4;2.5;;;;;;;2.41;91.19238;935.335;;;;
2020/02/01 04:57:27;;;;;;;4;2.5;;;;;;;2.42;91.59766;935.3008;;;;
2020/02/01 04:59:54;;;;;;;3.8;2.1;;;;;;;2.39;91.8252;935.3362;;;;
2020/02/01 05:02:26;;;;;;;4.3;2.1;;;;;;;2.36;91.93164;935.171;;;;
2020/02/01 05:04:56;;;;;;;3;1.9;;;;;;;2.39;92.24316;935.21;;;;
2020/02/01 05:07:24;;;;;;;3;2;;;;;;;2.49;91.68066;935.1735;;;;
2020/02/01 05:09:52;;;;;;;3.2;1.9;;;;;;;2.61;90.38281;935.1478;;;;
2020/02/01 05:12:17;;;;;;;3.6;2.1;;;;;;;2.68;89.58008;935.1487;;;;
2020/02/01 05:14:42;;;;;;;2.6;2.1;;;;;;;2.69;88.63086;935.1108;;;;
2020/02/01 05:17:10;;;;;;;5.1;2.8;;;;;;;2.42;88.69824;935.1689;;;;
2020/02/01 05:19:33;;;;;;;3.9;2.7;;;;;;;2.27;89.41602;935.1295;;;;
2020/02/01 05:21:58;;;;;;;3.9;2.4;;;;;;;2.27;90.25586;935.149;;;;
2020/02/01 05:24:23;;;;;;;3.6;2.1;;;;;;;2.29;90.46191;935.0491;;;;
2020/02/01 05:26:51;;;;;;;2.4;1.7;;;;;;;2.45;91.20215;935.0975;;;;
2020/02/01 05:29:14;;;;;;;3.1;1.9;;;;;;;2.61;90.35156;935.1246;;;;
2020/02/01 05:31:43;;;;;;;2.8;1.8;;;;;;;2.67;89.84961;935.0801;;;;
2020/02/01 05:34:13;;;;;;;3.7;1.7;;;;;;;2.64;89.66211;935.0296;;;;
2020/02/01 05:36:42;;;;;;;3;2;;;;;;;2.68;89.27734;935.0552;;;;
2020/02/01 05:39:45;;;;;;;5.3;3.8;;;;;;;2.58;88.91113;935.0297;;;;
2020/02/01 05:41:33;;;;;;;8.1;5.4;;;;;;;2.54;89.15918;935.0142;;;;
2020/02/01 05:43:58;;;;;;;10.8;7;;;;;;;2.48;89.30469;935.0623;;;;
2020/02/01 05:46:23;;;;;;;6.4;4.4;;;;;;;2.61;88.44434;935.0378;;;;
2020/02/01 05:48:50;;;;;;;6.8;4.5;;;;;;;2.63;87.31543;935.0542;;;;
2020/02/01 05:51:16;;;;;;;4.8;3.1;;;;;;;2.49;87.36621;934.9842;;;;
2020/02/01 05:53:42;;;;;;;5.4;3.4;;;;;;;2.32;87.73438;934.9441;;;;
2020/02/01 05:56:07;;;;;;;4.2;3;;;;;;;2.28;88.34277;934.8713;;;;
2020/02/01 05:58:35;;;;;;;3.1;2.2;;;;;;;2.31;89.65918;934.8661;;;;
2020/02/01 06:01:03;;;;;;;1.7;1.2;;;;;;;2.46;90.71094;934.7968;;;;
2020/02/01 06:03:32;;;;;;;4.6;3.2;;;;;;;2.56;89.44336;934.7397;;;;
2020/02/01 06:06:03;;;;;;;5;3.5;;;;;;;2.59;89.29199;934.8145;;;;
2020/02/01 06:08:26;;;;;;;7.8;5.5;;;;;;;2.67;88.85156;934.8176;;;;
2020/02/01 06:10:52;;;;;;;7.2;4.8;;;;;;;2.69;88.46094;934.7569;;;;
2020/02/01 06:13:17;;;;;;;7.4;4.7;;;;;;;2.72;88.22168;934.7297;;;;
2020/02/01 06:15:42;;;;;;;6.8;4.9;;;;;;;2.65;87.69141;934.7383;;;;
2020/02/01 06:18:13;;;;;;;6.7;4.2;;;;;;;2.55;88.10742;934.7222;;;;
2020/02/01 06:20:44;;;;;;;6.6;4.8;;;;;;;2.57;87.81055;934.6703;;;;
2020/02/01 06:23:11;;;;;;;6.9;5.1;;;;;;;2.71;87.04297;934.7302;;;;
2020/02/01 06:26:47;;;;;;;12;9.1;;;;;;;2.57;86.93457;934.6268;;;;
2020/02/01 06:28:49;;;;;;;9.4;7;;;;;;;2.39;87.29004;934.6599;;;;
2020/02/01 06:31:11;;;;;;;7.9;5.3;;;;;;;2.36;87.77734;934.6401;;;;
2020/02/01 06:33:40;;;;;;;6;4.3;;;;;;;2.39;88.3877;934.656;;;;
2020/02/01 06:36:09;;;;;;;9.2;6.6;;;;;;;2.53;87.26367;934.6658;;;;
2020/02/01 06:38:33;;;;;;;14.3;9.5;;;;;;;2.28;87.82813;934.6163;;;;
2020/02/01 06:40:57;;;;;;;14.5;9.1;;;;;;;2.24;88.35547;934.5793;;;;
2020/02/01 06:43:27;;;;;;;16.4;11.3;;;;;;;2.24;88.49219;934.5803;;;;
2020/02/01 06:45:54;;;;;;;16.5;11.4;;;;;;;2.34;88.54492;934.574;;;;
2020/02/01 06:48:22;;;;;;;15.5;11.1;;;;;;;2.43;87.84863;934.5648;;;;
2020/02/01 06:50:53;;;;;;;16.4;11;;;;;;;2.23;87.77344;934.5658;;;;
2020/02/01 06:53:20;;;;;;;16.2;11.1;;;;;;;2.12;88.36719;934.5476;;;;
2020/02/01 06:55:48;;;;;;;17;11.4;;;;;;;2.1;88.91016;934.6047;;;;
2020/02/01 06:58:14;;;;;;;16.6;10.8;;;;;;;2.15;89.14551;934.6058;;;;
2020/02/01 07:00:40;;;;;;;17;10.6;;;;;;;2.29;87.87402;934.6306;;;;
2020/02/01 07:03:07;;;;;;;15.1;10.4;;;;;;;2.43;87.26563;934.5837;;;;
2020/02/01 07:05:31;;;;;;;12.5;9.5;;;;;;;2.57;86.49805;934.5554;;;;
2020/02/01 07:07:59;;;;;;;12.2;8.8;;;;;;;2.6;86.17871;934.5681;;;;
2020/02/01 07:10:46;;;;;;;12.1;8.4;;;;;;;2.67;85.77637;934.65;;;;
2020/02/01 07:13:01;;;;;;;12.9;7.9;;;;;;;2.87;84.96582;934.5452;;;;
2020/02/01 07:15:24;;;;;;;9.5;7;;;;;;;2.89;84.91504;934.582;;;;
2020/02/01 07:17:52;;;;;;;8.6;6.9;;;;;;;2.81;85.69531;934.6127;;;;
2020/02/01 07:20:21;;;;;;;9.9;7.6;;;;;;;2.93;85.71875;934.5715;;;;
2020/02/01 07:22:46;;;;;;;11;7.7;;;;;;;3.02;84.70508;934.5605;;;;
2020/02/01 07:25:12;;;;;;;11.4;7.9;;;;;;;3.27;84.40527;934.6227;;;;
2020/02/01 07:27:37;;;;;;;15.6;10.4;;;;;;;3.68;82.72363;934.5608;;;;
2020/02/01 07:30:03;;;;;;;21.4;13.4;;;;;;;4.1;80.50977;934.5967;;;;
2020/02/01 07:32:28;;;;;;;21.1;13.6;;;;;;;4.47;79.11621;934.5259;;;;
2020/02/01 07:34:57;;;;;;;24.1;17.1;;;;;;;4.84;77.84473;934.5652;;;;
2020/02/01 07:37:26;;;;;;;27.2;18;;;;;;;4.94;76.40918;934.5691;;;;
2020/02/01 07:39:51;;;;;;;25;17.1;;;;;;;5.08;76.15234;934.5673;;;;
2020/02/01 07:42:23;;;;;;;23.8;16;;;;;;;5.63;74.28711;934.5198;;;;
2020/02/01 07:44:54;;;;;;;22.1;15.5;;;;;;;6.04;72.24609;934.5016;;;;
2020/02/01 07:47:17;;;;;;;18.5;13.4;;;;;;;6.26;71.3877;934.4706;;;;
2020/02/01 07:49:41;;;;;;;18.1;12.8;;;;;;;6.36;70.6377;934.5074;;;;
2020/02/01 07:52:06;;;;;;;19.4;13.3;;;;;;;6.56;70.68164;934.4164;;;;
2020/02/01 07:54:31;;;;;;;19.4;14.1;;;;;;;7.02;68.91113;934.3967;;;;
2020/02/01 07:57:06;;;;;;;16.3;11.8;;;;;;;7.38;67.46094;934.3938;;;;
2020/02/01 07:59:33;;;;;;;16.5;10.9;;;;;;;7.75;66.52148;934.3792;;;;
2020/02/01 08:01:57;;;;;;;14.3;10.9;;;;;;;8.33;64.77246;934.3047;;;;
2020/02/01 08:04:37;;;;;;;14.8;10.3;;;;;;;9.29;62.22852;934.2686;;;;
2020/02/01 08:07:00;;;;;;;11.4;8.9;;;;;;;9.96;60.02148;934.09;;;;
2020/02/01 08:09:26;;;;;;;12.8;9;;;;;;;9.9;59.09082;934.1398;;;;
2020/02/01 08:11:55;;;;;;;12.2;8;;;;;;;9.67;59.73047;934.1231;;;;
2020/02/01 08:14:38;;;;;;;12.1;8.8;;;;;;;9.67;59.33203;933.9802;;;;
2020/02/01 08:17:10;;;;;;;8.8;6.2;;;;;;;10.23;58.13086;934.0094;;;;
2020/02/01 08:20:54;;;;;;;7.7;4.3;;;;;;;10.86;56.17188;933.9855;;;;
2020/02/01 08:24:30;;;;;;;9.2;6.7;;;;;;;13.04;50.36816;933.9531;;;;
2020/02/01 08:27:52;;;;;;;9.7;5.8;;;;;;;13.6;48.81152;933.995;;;;
2020/02/01 08:34:44;;;;;;;7.7;4.8;;;;;;;14.79;45.20801;933.9572;;;;
2020/02/01 08:37:05;;;;;;;4.8;3.5;;;;;;;15.28;44.13965;933.897;;;;
2020/02/01 08:39:37;;;;;;;3.7;2.9;;;;;;;15.24;43.375;933.8519;;;;
2020/02/01 08:43:39;;;;;;;4.9;3.3;;;;;;;15;44.19141;933.8053;;;;
2020/02/01 08:46:51;;;;;;;7.6;5.6;;;;;;;14.96;44.29199;933.7762;;;;
2020/02/01 08:50:32;;;;;;;8.2;5.2;;;;;;;14.5;44.41895;933.7427;;;;
2020/02/01 08:51:58;;;;;;;8.4;5.7;;;;;;;14.01;45.54199;933.7442;;;;
2020/02/01 08:54:22;;;;;;;6;3.9;;;;;;;13.43;46.73438;933.6902;;;;
2020/02/01 08:59:40;;;;;;;11.9;4.9;;;;;;;12.73;49.20703;933.7133;;;;
2020/02/01 09:09:12;;;;;;;5.2;3.5;;;;;;;10.27;56.58496;933.6666;;;;
2020/02/01 09:11:29;;;;;;;6.1;4.3;;;;;;;9.57;59.67188;933.6359;;;;
2020/02/01 09:22:03;;;;;;;7.6;4.7;;;;;;;8.45;64.44824;933.6196;;;;
2020/02/01 09:24:03;;;;;;;6.1;3.3;;;;;;;8.08;65.12012;933.5823;;;;
2020/02/01 09:26:30;;;;;;;5.9;3;;;;;;;8.09;64.9502;933.5524;;;;
2020/02/01 09:29:10;;;;;;;4.9;3.2;;;;;;;8.27;65.55664;933.5513;;;;
2020/02/01 09:31:54;;;;;;;4.5;2.9;;;;;;;8.44;65.0957;933.5251;;;;
2020/02/01 09:39:00;;;;;;;6;3.7;;;;;;;9.08;63.31348;933.3867;;;;
2020/02/01 09:47:12;;;;;;;8;4.8;;;;;;;9.38;61.49121;933.3596;;;;
2020/02/01 09:59:31;;;;;;;4;1.8;;;;;;;9.97;56.17969;933.29;;;;
2020/02/01 10:09:33;;;;;;;4;2.5;;;;;;;10.37;55.63965;933.2633;;;;
2020/02/01 10:11:59;;;;;;;2.8;1.5;;;;;;;10.58;55.15234;933.2822;;;;
2020/02/01 10:14:37;;;;;;;2.1;1.5;;;;;;;10.83;54.625;933.1722;;;;
2020/02/01 10:22:10;;;;;;;2.5;1.3;;;;;;;11.07;52.96289;933.0808;;;;
2020/02/01 10:24:45;;;;;;;4.5;1.7;;;;;;;11.12;52.375;933.1111;;;;
2020/02/01 10:29:57;;;;;;;4.4;1.2;;;;;;;11.13;51.9082;933.0449;;;;
2020/02/01 10:38:21;;;;;;;5.1;2.4;;;;;;;12.04;50.1377;932.8819;;;;
2020/02/01 10:40:46;;;;;;;1.7;1.2;;;;;;;12.62;49.32031;932.8322;;;;
2020/02/01 10:42:25;;;;;;;5.9;3.6;;;;;;;12.86;48.25781;932.8081;;;;
2020/02/01 10:44:57;;;;;;;7.2;2.2;;;;;;;12.54;50.76855;932.7534;;;;
2020/02/01 10:55:05;;;;;;;4.4;1.5;;;;;;;11.58;51.53809;932.5525;;;;
2020/02/01 10:57:31;;;;;;;8.5;1.9;;;;;;;11.4;51.7334;932.5139;;;;
2020/02/01 11:00:05;;;;;;;5.9;1.6;;;;;;;11.23;53.18848;932.508;;;;
2020/02/01 11:03:24;;;;;;;3.6;1.3;;;;;;;11.03;51.23242;932.4475;;;;
2020/02/01 11:07:43;;;;;;;3.1;1.2;;;;;;;11.32;50.5;932.3467;;;;
2020/02/01 11:10:26;;;;;;;3;1.1;;;;;;;11.38;51.21582;932.3146;;;;
2020/02/01 11:12:55;;;;;;;7.3;1.6;;;;;;;11.72;50.87891;932.2795;;;;
2020/02/01 11:14:47;;;;;;;7.8;2.3;;;;;;;11.95;49.58984;932.2414;;;;
2020/02/01 11:17:24;;;;;;;9.6;1.7;;;;;;;11.91;48.03711;932.1364;;;;
2020/02/01 11:19:46;;;;;;;6.6;1.7;;;;;;;12.06;48.06543;932.1653;;;;
2020/02/01 11:25:02;;;;;;;4.9;1.4;;;;;;;12.34;47.55762;932.087;;;;
2020/02/01 11:27:11;;;;;;;5.9;1.6;;;;;;;12.47;47.21582;932.0137;;;;
2020/02/01 11:29:37;;;;;;;7.5;1.1;;;;;;;12.68;47.23926;931.961;;;;
2020/02/01 11:32:21;;;;;;;7.3;1.9;;;;;;;12.85;47.46484;931.887;;;;
2020/02/01 11:35:22;;;;;;;10.7;1.9;;;;;;;13.27;48.41797;931.8979;;;;
2020/02/01 11:40:28;;;;;;;3.8;1.3;;;;;;;13.45;46.47266;931.801;;;;
2020/02/01 11:52:52;;;;;;;1.2;0.9;;;;;;;13.98;44.07813;931.644;;;;
2020/02/01 11:55:39;;;;;;;3.3;0.9;;;;;;;14.12;43.33203;931.588;;;;
2020/02/01 12:00:09;;;;;;;1.6;0.7;;;;;;;15.89;40.22461;931.5234;;;;
2020/02/01 12:02:30;;;;;;;1.2;0.7;;;;;;;18.98;36.83105;931.5662;;;;
2020/02/01 12:05:37;;;;;;;3.1;1.3;;;;;;;22.33;29.46289;931.5174;;;;
2020/02/01 12:10:12;;;;;;;0.6;0.5;;;;;;;26.95;22.8125;931.588;;;;
2020/02/01 12:12:43;;;;;;;2.3;0.8;;;;;;;28.01;21.89258;931.5101;;;;
2020/02/01 12:14:57;;;;;;;1.4;0.7;;;;;;;28.84;20.66016;931.5195;;;;
2020/02/01 12:17:54;;;;;;;2.4;1;;;;;;;28.88;20.66113;931.5333;;;;
2020/02/01 12:20:32;;;;;;;1.3;1;;;;;;;28.54;20.30078;931.4458;;;;
2020/02/01 12:25:00;;;;;;;0.9;0.6;;;;;;;28.52;20.31152;931.4747;;;;
2020/02/01 12:27:29;;;;;;;0.8;0.6;;;;;;;29.86;19.52539;931.3977;;;;
2020/02/01 12:29:50;;;;;;;1.8;0.8;;;;;;;30.64;18.71094;931.4106;;;;
2020/02/01 12:32:15;;;;;;;1.1;0.9;;;;;;;31.2;17.83691;931.3692;;;;
2020/02/01 12:34:41;;;;;;;1.5;0.6;;;;;;;31.9;17.18164;931.3752;;;;
2020/02/01 12:37:09;;;;;;;0.8;0.5;;;;;;;32.25;16.85938;931.3155;;;;
2020/02/01 12:39:31;;;;;;;0.7;0.5;;;;;;;32.65;16.3457;931.3766;;;;
2020/02/01 12:41:58;;;;;;;0.8;0.5;;;;;;;31.66;16.95605;931.3836;;;;
2020/02/01 12:44:31;;;;;;;0.7;0.5;;;;;;;31.86;17.45508;931.3895;;;;
2020/02/01 12:46:55;;;;;;;0.5;0.5;;;;;;;32.3;17.0166;931.4142;;;;
2020/02/01 12:49:23;;;;;;;0.8;0.5;;;;;;;32.23;17.01367;931.3769;;;;
2020/02/01 12:51:48;;;;;;;1.1;0.5;;;;;;;32.24;17.09863;931.3835;;;;
2020/02/01 12:54:13;;;;;;;1.3;0.6;;;;;;;32.4;17.0918;931.3317;;;;
2020/02/01 12:56:41;;;;;;;1.1;0.6;;;;;;;31.82;17.38184;931.2846;;;;
2020/02/01 12:59:04;;;;;;;1.2;0.5;;;;;;;30.33;19.00879;931.2042;;;;
2020/02/01 13:01:31;;;;;;;0.7;0.5;;;;;;;30.21;19.74414;931.2153;;;;
2020/02/01 13:03:58;;;;;;;0.8;0.6;;;;;;;29.67;20.11328;931.1842;;;;
2020/02/01 13:06:34;;;;;;;0.7;0.6;;;;;;;30.44;19.64551;931.2263;;;;
2020/02/01 13:08:55;;;;;;;1;0.5;;;;;;;30.68;19.27441;931.1772;;;;
2020/02/01 13:11:25;;;;;;;0.6;0.6;;;;;;;30.16;19.80078;931.1908;;;;
2020/02/01 13:13:53;;;;;;;2.5;0.5;;;;;;;28.59;21.3623;931.1786;;;;
2020/02/01 13:16:22;;;;;;;1.1;0.6;;;;;;;27.95;21.97266;931.1635;;;;
2020/02/01 13:18:49;;;;;;;0.7;0.7;;;;;;;26.67;23.52148;931.0381;;;;
2020/02/01 13:21:14;;;;;;;0.7;0.6;;;;;;;25.68;24.94629;931.108;;;;
2020/02/01 13:23:38;;;;;;;1.2;0.7;;;;;;;24.6;26.38281;931.127;;;;
2020/02/01 13:26:07;;;;;;;1;0.8;;;;;;;23.78;27.22949;931.1166;;;;
2020/02/01 13:28:37;;;;;;;0.9;0.6;;;;;;;23.15;28.88379;931.038;;;;
2020/02/01 13:31:06;;;;;;;2;0.7;;;;;;;23.55;28.60254;931.14;;;;
2020/02/01 13:33:35;;;;;;;1;0.8;;;;;;;23.81;28.44336;931.1465;;;;
2020/02/01 13:36:07;;;;;;;1.6;0.8;;;;;;;22.59;30.38379;931.1969;;;;
2020/02/01 13:38:31;;;;;;;2.2;1;;;;;;;20.93;33.20508;931.2361;;;;
2020/02/01 13:41:02;;;;;;;0.8;0.7;;;;;;;18.9;37.25488;931.2311;;;;
2020/02/01 13:43:30;;;;;;;3.3;0.9;;;;;;;18.37;38.79102;931.2633;;;;
2020/02/01 13:45:56;;;;;;;1.3;0.9;;;;;;;18.57;39.62109;931.2612;;;;
2020/02/01 13:48:21;;;;;;;1.6;0.9;;;;;;;19.96;36.65625;931.243;;;;
2020/02/01 13:50:51;;;;;;;1.3;0.7;;;;;;;21.2;34.3252;931.2145;;;;
2020/02/01 13:55:55;;;;;;;1.8;0.9;;;;;;;18.92;38.99023;931.4899;;;;
2020/02/01 13:58:19;;;;;;;1.7;0.7;;;;;;;17.2;43.18652;931.5402;;;;
2020/02/01 14:00:44;;;;;;;2.7;0.7;;;;;;;16.93;44.36426;931.6412;;;;
2020/02/01 14:03:59;;;;;;;1.4;1;;;;;;;16.13;46.28418;931.7431;;;;
2020/02/01 14:06:21;;;;;;;3.4;2.1;;;;;;;16.03;47.02539;931.8489;;;;
2020/02/01 14:08:51;;;;;;;6.1;1;;;;;;;15.54;48.70508;931.907;;;;
2020/02/01 14:11:15;;;;;;;8.1;2.8;;;;;;;15.34;49.64063;931.8858;;;;
2020/02/01 14:13:39;;;;;;;3.1;0.8;;;;;;;14.71;50.11035;932.0228;;;;
2020/02/01 14:16:09;;;;;;;2.5;0.9;;;;;;;14.4;47.56445;932.0397;;;;
2020/02/01 14:18:36;;;;;;;3.5;0.9;;;;;;;14.83;46.99023;932.1204;;;;
2020/02/01 14:21:10;;;;;;;2.7;1.2;;;;;;;14.99;47.0752;932.1819;;;;
2020/02/01 14:23:36;;;;;;;2.5;0.9;;;;;;;15.36;46.09863;932.1277;;;;
2020/02/01 14:26:13;;;;;;;1.6;1;;;;;;;15.41;45.2959;932.0914;;;;
2020/02/01 14:28:37;;;;;;;3.3;1.5;;;;;;;15.43;45.42578;932.1458;;;;
2020/02/01 14:31:26;;;;;;;6.9;1.3;;;;;;;15.33;45.50781;932.161;;;;
2020/02/01 14:33:56;;;;;;;2.9;1.2;;;;;;;15.2;45.49316;932.2883;;;;
2020/02/01 14:36:54;;;;;;;4.1;1.1;;;;;;;15.27;45.82422;932.2441;;;;
2020/02/01 14:39:22;;;;;;;3.2;1.1;;;;;;;15.31;45.99121;932.1036;;;;
2020/02/01 14:41:56;;;;;;;6.3;2.1;;;;;;;15.32;46.68359;932.1052;;;;
2020/02/01 14:44:50;;;;;;;10.1;5.5;;;;;;;15.22;46.9502;932.1672;;;;
2020/02/01 14:47:15;;;;;;;14.6;7.6;;;;;;;15;47.89551;932.2385;;;;
2020/02/01 14:49:50;;;;;;;9.9;4;;;;;;;14.94;47.18457;932.2115;;;;
2020/02/01 14:52:08;;;;;;;10.3;4.6;;;;;;;15;47.72266;932.2169;;;;
2020/02/01 14:54:32;;;;;;;13.7;6.3;;;;;;;14.88;48.18164;932.1092;;;;
2020/02/01 14:56:59;;;;;;;13.5;6.1;;;;;;;14.84;48.43164;932.0986;;;;
2020/02/01 14:59:39;;;;;;;15.5;6.7;;;;;;;14.97;49.04492;932.1822;;;;
2020/02/01 15:02:51;;;;;;;17.1;6.6;;;;;;;15.06;48.83594;932.2042;;;;
2020/02/01 15:05:15;;;;;;;5.7;2.2;;;;;;;14.93;49.10938;932.1028;;;;
2020/02/01 15:07:42;;;;;;;4.9;2.1;;;;;;;14.79;49.43945;931.9326;;;;
2020/02/01 15:10:14;;;;;;;6.4;2.2;;;;;;;14.76;50.32422;931.7662;;;;
2020/02/01 15:12:45;;;;;;;8.1;2.8;;;;;;;14.74;49.5957;931.6912;;;;
2020/02/01 15:15:19;;;;;;;8;3.4;;;;;;;14.54;49.80273;931.6255;;;;
2020/02/01 15:17:53;;;;;;;8.7;3.3;;;;;;;14.18;51.12109;931.5974;;;;
2020/02/01 15:20:25;;;;;;;6.4;3.1;;;;;;;14.01;51.9873;931.6029;;;;
2020/02/01 15:22:56;;;;;;;12.9;3.4;;;;;;;14.1;52.43555;931.6563;;;;
2020/02/01 15:25:30;;;;;;;8.2;3.7;;;;;;;14.13;52.64648;931.6663;;;;
2020/02/01 15:27:57;;;;;;;7.9;3.6;;;;;;;14.2;53.36914;931.7509;;;;
2020/02/01 15:30:27;;;;;;;12.1;4.4;;;;;;;14.2;53.15039;931.7941;;;;
2020/02/01 15:33:00;;;;;;;17;4.9;;;;;;;14.2;53.13867;931.7966;;;;
2020/02/01 15:35:31;;;;;;;13.6;5.2;;;;;;;14.12;53.26758;931.8008;;;;
2020/02/01 15:37:56;;;;;;;13.2;4.7;;;;;;;14.06;54.14551;931.765;;;;
2020/02/01 15:40:28;;;;;;;10.2;3.7;;;;;;;14.05;53.31543;931.6635;;;;
2020/02/01 15:43:06;;;;;;;9.3;4.2;;;;;;;13.97;54.18164;931.7227;;;;
2020/02/01 15:45:32;;;;;;;10.4;3.9;;;;;;;13.88;55.00977;931.7448;;;;
2020/02/01 15:48:06;;;;;;;10.9;3.6;;;;;;;13.85;54.70605;931.6292;;;;
2020/02/01 15:50:40;;;;;;;5.7;3.6;;;;;;;13.84;54.12012;931.7117;;;;
2020/02/01 15:53:16;;;;;;;15.4;4;;;;;;;13.67;55.47754;931.8337;;;;
2020/02/01 15:55:45;;;;;;;3.2;2.2;;;;;;;13.62;53.9873;931.8784;;;;
2020/02/01 15:58:25;;;;;;;4.6;2.4;;;;;;;13.53;54.74707;931.8824;;;;
2020/02/01 16:00:42;;;;;;;3.9;2.2;;;;;;;13.45;53.80566;931.8914;;;;
2020/02/01 16:03:14;;;;;;;4.1;2.1;;;;;;;13.28;54.06152;931.9194;;;;
2020/02/01 16:05:42;;;;;;;4.2;2.5;;;;;;;13.16;55.1709;931.9648;;;;
2020/02/01 16:10:41;;;;;;;11.7;4.3;;;;;;;13.08;57.53906;932.0425;;;;
2020/02/01 16:13:12;;;;;;;8;3.8;;;;;;;13.07;57.45703;931.9906;;;;
2020/02/01 16:15:41;;;;;;;3.4;2.3;;;;;;;12.84;55.31445;931.9902;;;;
2020/02/01 16:18:10;;;;;;;5;2.3;;;;;;;12.84;56.01465;931.9416;;;;
2020/02/01 16:20:43;;;;;;;4.2;2.8;;;;;;;12.65;56.98828;931.9127;;;;
2020/02/01 16:23:17;;;;;;;8.2;3.2;;;;;;;12.58;56.59961;931.8563;;;;
2020/02/01 16:25:48;;;;;;;4.8;2.2;;;;;;;12.4;57.29883;931.903;;;;
2020/02/01 16:28:23;;;;;;;3.9;2.1;;;;;;;12.23;57.70117;931.9529;;;;
2020/02/01 16:30:52;;;;;;;7.4;2.8;;;;;;;12.31;58.04492;931.9986;;;;
2020/02/01 16:33:17;;;;;;;5.4;2.2;;;;;;;12.37;58.15527;931.9352;;;;
2020/02/01 16:35:45;;;;;;;13.8;8.4;;;;;;;12.44;58.77344;932.0545;;;;
2020/02/01 16:38:17;;;;;;;35.8;22.5;;;;;;;12.34;59.7793;932.1476;;;;
2020/02/01 16:40:54;;;;;;;40.4;27.2;;;;;;;12.28;60.30957;932.0963;;;;
2020/02/01 16:43:26;;;;;;;124.9;88.6;;;;;;;12.16;60.30469;932.1566;;;;
2020/02/01 16:45:52;;;;;;;54.7;38.9;;;;;;;12.28;59.1416;932.2023;;;;
2020/02/01 16:48:25;;;;;;;20.7;14.8;;;;;;;12.13;60.10645;932.1863;;;;
2020/02/01 16:50:58;;;;;;;61.6;48.6;;;;;;;12.11;60.14941;932.2703;;;;
2020/02/01 16:53:33;;;;;;;7.8;5.4;;;;;;;12.05;59.72852;932.1525;;;;
2020/02/01 16:56:02;;;;;;;10.2;7.8;;;;;;;11.85;60.11328;932.2452;;;;
2020/02/01 16:58:27;;;;;;;8.2;5.9;;;;;;;11.83;60.24805;932.329;;;;
2020/02/01 17:00:58;;;;;;;7.9;4.1;;;;;;;11.8;60.59961;932.3823;;;;
2020/02/01 17:03:22;;;;;;;6.1;4;;;;;;;11.82;60.78516;932.3865;;;;
2020/02/01 17:05:51;;;;;;;8.8;3.9;;;;;;;11.64;61.68555;932.5175;;;;
2020/02/01 17:08:38;;;;;;;6.7;3.2;;;;;;;11.55;61.1709;932.2751;;;;
2020/02/01 17:11:12;;;;;;;4.8;2.8;;;;;;;11.08;61.46875;932.3845;;;;
2020/02/01 17:13:40;;;;;;;5.3;3.2;;;;;;;11.17;62.75098;932.609;;;;
2020/02/01 17:16:14;;;;;;;4.7;2.7;;;;;;;11.23;62.18945;932.6841;;;;
2020/02/01 17:18:40;;;;;;;3.4;2.6;;;;;;;11.13;61.55664;932.6911;;;;
2020/02/01 17:21:18;;;;;;;4.3;3.1;;;;;;;11.16;62.24805;932.8552;;;;
2020/02/01 17:23:50;;;;;;;3.9;3.3;;;;;;;11.06;62.02637;932.8411;;;;
2020/02/01 17:26:17;;;;;;;6.3;3.4;;;;;;;10.6;63.67383;932.8038;;;;
2020/02/01 17:28:51;;;;;;;6.2;3.5;;;;;;;10.45;64.62207;932.9437;;;;
2020/02/01 17:31:15;;;;;;;4.6;3.4;;;;;;;10.8;63.9082;932.9728;;;;
2020/02/01 17:33:51;;;;;;;6.4;4;;;;;;;10.79;64.125;933.1067;;;;
2020/02/01 17:36:20;;;;;;;7.1;4.4;;;;;;;10.83;63.54785;932.8769;;;;
2020/02/01 17:38:51;;;;;;;5.4;3.9;;;;;;;10.61;64.23438;933.0111;;;;